Time;durP1;ratioP1;P1;durP2;ratioP2;P2;SDS_P1;SDS_P2;PMS_P1;PMS_P2;Temp;Humidity;BMP_temperature;BMP_pressure;BME280_temperature;BME280_humidity;BME280_pressure;Samples;Min_cycle;Max_cycle;Signal;HPM_P1;HPM_P2
2022/10/09 00:02:00;;;;;;;6.80;2.53;;;8.60;99.90;;;;;;5039429;28;48920;-84
2022/10/09 00:05:05;;;;;;;5.07;2.50;;;8.60;99.90;;;;;;5040254;28;38270;-84
2022/10/09 00:07:39;;;;;;;8.83;3.20;;;8.60;99.90;;;;;;5132417;23;49068;-84
2022/10/09 00:10:08;;;;;;;7.13;3.10;;;8.60;99.90;;;;;;5771430;23;38320;-83
2022/10/09 00:12:37;;;;;;;8.07;3.17;;;8.50;99.90;;;;;;5533721;23;49917;-82
2022/10/09 00:15:11;;;;;;;11.40;3.47;;;8.50;99.90;;;;;;5025535;28;38361;-82
2022/10/09 00:17:40;;;;;;;9.73;3.00;;;8.50;99.90;;;;;;5149498;23;38757;-82
2022/10/09 00:20:11;;;;;;;5.50;2.93;;;8.50;99.90;;;;;;5022098;28;37904;-83
2022/10/09 00:22:42;;;;;;;10.00;3.00;;;8.50;99.90;;;;;;5023960;28;38797;-81
2022/10/09 00:25:22;;;;;;;11.80;3.13;;;8.50;99.90;;;;;;5021311;28;36504;-83
2022/10/09 00:28:26;;;;;;;10.57;2.53;;;8.40;99.90;;;;;;5004548;28;38249;-83
2022/10/09 00:30:59;;;;;;;9.73;3.17;;;8.40;99.90;;;;;;5016195;28;48108;-84
2022/10/09 00:38:40;;;;;;;9.57;2.70;;;8.30;99.90;;;;;;5586822;23;20047;-82
2022/10/09 00:41:40;;;;;;;7.77;2.30;;;8.30;99.90;;;;;;4997467;28;37429;-83
2022/10/09 00:44:50;;;;;;;8.80;2.80;;;8.20;99.90;;;;;;5009096;28;39262;-83
2022/10/09 00:47:35;;;;;;;7.77;2.63;;;8.20;99.90;;;;;;5007533;28;37161;-83
2022/10/09 00:50:33;;;;;;;10.07;2.60;;;8.20;99.90;;;;;;4997751;28;38215;-82
2022/10/09 00:53:04;;;;;;;7.77;2.60;;;8.10;99.90;;;;;;4994874;28;47722;-83
2022/10/09 00:55:39;;;;;;;9.83;2.47;;;8.10;99.90;;;;;;5006087;28;47524;-83
2022/10/09 00:58:21;;;;;;;6.63;2.70;;;8.10;99.90;;;;;;4993378;28;38054;-84
2022/10/09 01:03:24;;;;;;;8.83;2.50;;;8.20;99.90;;;;;;5186999;22;20086;-80
2022/10/09 01:06:32;;;;;;;6.07;2.70;;;8.10;99.90;;;;;;4986650;28;37539;-80
2022/10/09 01:09:02;;;;;;;6.00;2.80;;;8.10;99.90;;;;;;4991248;28;48667;-81
2022/10/09 01:11:35;;;;;;;3.77;2.00;;;8.10;99.90;;;;;;4999298;28;49015;-81
2022/10/09 01:14:10;;;;;;;8.23;2.57;;;8.10;99.90;;;;;;4985838;28;36988;-81
2022/10/09 01:16:47;;;;;;;10.03;2.77;;;8.10;99.90;;;;;;5006123;28;48861;-81
2022/10/09 01:19:30;;;;;;;12.83;3.10;;;8.00;99.90;;;;;;5003873;28;38652;-81
2022/10/09 01:22:11;;;;;;;6.93;3.10;;;8.00;99.90;;;;;;5005962;28;35033;-81
2022/10/09 01:24:45;;;;;;;9.10;3.27;;;8.00;99.90;;;;;;4999444;28;49744;-81
2022/10/09 01:27:22;;;;;;;5.43;2.43;;;8.00;99.90;;;;;;4983205;28;37714;-81
2022/10/09 01:30:11;;;;;;;12.13;3.00;;;8.00;99.90;;;;;;4985026;28;37653;-81
2022/10/09 01:32:44;;;;;;;7.23;2.47;;;7.90;99.90;;;;;;4994763;28;38534;-81
2022/10/09 01:35:13;;;;;;;7.73;2.70;;;7.90;99.90;;;;;;4999251;28;37718;-81
2022/10/09 01:37:42;;;;;;;7.03;2.37;;;7.80;99.90;;;;;;5004255;28;37365;-81
2022/10/09 01:40:11;;;;;;;6.10;2.50;;;7.80;99.90;;;;;;4993536;28;38519;-80
2022/10/09 01:42:38;;;;;;;8.10;2.43;;;7.80;99.90;;;;;;5002011;28;39105;-81
2022/10/09 01:45:05;;;;;;;6.77;2.60;;;7.70;99.90;;;;;;4974734;28;38563;-81
2022/10/09 01:47:31;;;;;;;5.87;2.50;;;7.70;99.90;;;;;;5023813;28;37323;-81
2022/10/09 01:50:31;;;;;;;9.60;2.40;;;7.70;99.90;;;;;;5010761;28;36560;-81
2022/10/09 01:53:10;;;;;;;7.57;2.77;;;7.70;99.90;;;;;;5001262;28;48579;-81
2022/10/09 01:55:39;;;;;;;6.97;2.80;;;7.70;99.90;;;;;;5006488;28;46208;-80
2022/10/09 01:58:10;;;;;;;9.93;2.90;;;7.70;99.90;;;;;;5014117;28;37220;-81
2022/10/09 02:00:41;;;;;;;9.43;3.07;;;7.70;99.90;;;;;;5017080;28;37088;-81
2022/10/09 02:03:12;;;;;;;9.13;3.20;;;7.60;99.90;;;;;;5020672;28;38253;-81
2022/10/09 02:05:41;;;;;;;7.97;3.10;;;7.60;99.90;;;;;;5013299;28;38814;-81
2022/10/09 02:08:09;;;;;;;11.03;3.03;;;7.60;99.90;;;;;;5012286;28;37274;-81
2022/10/09 02:10:41;;;;;;;11.07;3.10;;;7.50;99.90;;;;;;5013430;28;36416;-81
2022/10/09 02:13:07;;;;;;;6.55;3.42;;;7.60;99.90;;;;;;5016862;28;38006;-81
2022/10/09 02:16:01;;;;;;;7.63;3.23;;;7.60;99.90;;;;;;5009915;28;37806;-81
2022/10/09 02:18:39;;;;;;;7.27;3.40;;;7.50;99.90;;;;;;4990136;28;36557;-81
2022/10/09 02:21:24;;;;;;;6.63;3.50;;;7.50;99.90;;;;;;5005070;28;36415;-81
2022/10/09 02:23:51;;;;;;;6.50;3.23;;;7.50;99.90;;;;;;5012641;28;38905;-81
2022/10/09 02:26:18;;;;;;;9.13;3.37;;;7.50;99.90;;;;;;5009642;28;38424;-80
2022/10/09 02:28:45;;;;;;;9.17;3.30;;;7.50;99.90;;;;;;5006001;28;36972;-81
2022/10/09 02:31:21;;;;;;;7.47;3.53;;;7.50;99.90;;;;;;5004348;28;36739;-81
2022/10/09 02:33:57;;;;;;;9.03;3.63;;;7.40;99.90;;;;;;5018741;28;37889;-81
2022/10/09 02:36:24;;;;;;;11.33;3.80;;;7.40;99.90;;;;;;5004358;28;37818;-81
2022/10/09 02:38:51;;;;;;;9.67;3.50;;;7.40;99.90;;;;;;4997047;28;37173;-81
2022/10/09 02:41:17;;;;;;;6.30;3.30;;;7.40;99.90;;;;;;5000071;28;35983;-81
2022/10/09 02:43:43;;;;;;;9.77;3.70;;;7.40;99.90;;;;;;4999360;28;38708;-81
2022/10/09 02:46:10;;;;;;;7.70;3.30;;;7.40;99.90;;;;;;5020080;28;38690;-80
2022/10/09 02:48:36;;;;;;;8.00;3.47;;;7.30;99.90;;;;;;5022353;28;37040;-79
2022/10/09 02:51:02;;;;;;;8.23;3.80;;;7.40;99.90;;;;;;5001765;28;37547;-81
2022/10/09 02:53:29;;;;;;;10.87;3.97;;;7.40;99.90;;;;;;5015414;28;37650;-81
2022/10/09 02:55:55;;;;;;;7.70;3.80;;;7.30;99.90;;;;;;5019707;28;39715;-80
2022/10/09 02:58:22;;;;;;;6.67;3.50;;;7.30;99.90;;;;;;5014970;28;38392;-81
2022/10/09 03:00:52;;;;;;;9.03;4.13;;;7.30;99.90;;;;;;5013005;28;37382;-81
2022/10/09 03:03:19;;;;;;;6.43;3.70;;;7.20;99.90;;;;;;5010956;28;39523;-81
2022/10/09 03:05:46;;;;;;;9.40;3.80;;;7.20;99.90;;;;;;4975589;28;37690;-80
2022/10/09 03:08:14;;;;;;;7.63;3.73;;;7.20;99.90;;;;;;5000924;28;38330;-80
2022/10/09 03:10:40;;;;;;;9.30;4.17;;;7.20;99.90;;;;;;4985081;28;36206;-81
2022/10/09 03:13:07;;;;;;;10.33;4.37;;;7.20;99.90;;;;;;4983778;28;40302;-81
2022/10/09 03:15:34;;;;;;;9.90;4.43;;;7.20;99.90;;;;;;4986500;28;37337;-81
2022/10/09 03:18:01;;;;;;;9.97;4.20;;;7.20;99.90;;;;;;4994335;28;37076;-80
2022/10/09 03:20:29;;;;;;;7.27;4.40;;;7.20;99.90;;;;;;4984477;28;37046;-81
2022/10/09 03:22:56;;;;;;;8.87;3.93;;;7.10;99.90;;;;;;5006001;28;38106;-81
2022/10/09 03:25:23;;;;;;;12.80;4.90;;;7.10;99.90;;;;;;4988261;28;38449;-80
2022/10/09 03:27:49;;;;;;;8.60;3.90;;;7.10;99.90;;;;;;4988341;28;36982;-81
2022/10/09 03:30:15;;;;;;;9.37;3.97;;;7.10;99.90;;;;;;4987733;28;37415;-80
2022/10/09 03:32:52;;;;;;;9.83;4.30;;;7.10;99.90;;;;;;5000910;28;37781;-81
2022/10/09 03:35:19;;;;;;;5.30;4.57;;;7.10;99.90;;;;;;4988960;28;38999;-81
2022/10/09 03:37:46;;;;;;;8.67;4.00;;;7.10;99.90;;;;;;4996750;28;37172;-81
2022/10/09 03:40:12;;;;;;;7.97;4.60;;;7.00;99.90;;;;;;4994909;28;36279;-80
2022/10/09 03:42:39;;;;;;;9.83;4.13;;;7.00;99.90;;;;;;5004424;28;40069;-82
2022/10/09 03:45:05;;;;;;;10.57;4.33;;;7.00;99.90;;;;;;4993519;28;39047;-81
2022/10/09 03:47:32;;;;;;;7.27;4.40;;;7.00;99.90;;;;;;5012348;28;37579;-81
2022/10/09 03:50:00;;;;;;;10.67;4.80;;;7.00;99.90;;;;;;5012131;28;38766;-82
2022/10/09 03:52:27;;;;;;;10.30;4.70;;;7.00;99.90;;;;;;4996439;28;38948;-81
2022/10/09 03:54:53;;;;;;;10.70;5.00;;;7.00;99.90;;;;;;4988879;28;37496;-81
2022/10/09 03:57:20;;;;;;;11.63;4.80;;;7.00;99.90;;;;;;5002431;28;37995;-81
2022/10/09 03:59:46;;;;;;;10.60;5.40;;;7.00;99.90;;;;;;5001167;28;36214;-81
2022/10/09 04:02:12;;;;;;;10.07;4.93;;;7.00;99.90;;;;;;4988083;28;37780;-81
2022/10/09 04:04:39;;;;;;;10.23;5.40;;;7.00;99.90;;;;;;5017743;28;38920;-81
2022/10/09 04:07:05;;;;;;;8.73;4.23;;;7.00;99.90;;;;;;5009705;28;37564;-82
2022/10/09 04:09:31;;;;;;;11.37;4.77;;;7.00;99.90;;;;;;5011035;28;36652;-81
2022/10/09 04:11:58;;;;;;;12.10;4.70;;;7.00;99.90;;;;;;5026698;28;38637;-81
2022/10/09 04:14:24;;;;;;;11.87;6.20;;;7.00;99.90;;;;;;5009766;28;38625;-82
2022/10/09 04:16:51;;;;;;;12.03;6.10;;;7.00;99.90;;;;;;5005454;28;37377;-81
2022/10/09 04:19:17;;;;;;;36.23;10.90;;;7.10;99.90;;;;;;5016933;28;36862;-81
2022/10/09 04:21:44;;;;;;;16.73;7.47;;;7.10;99.90;;;;;;5012687;28;38351;-81
2022/10/09 04:24:10;;;;;;;21.63;7.60;;;7.20;99.90;;;;;;5013195;28;37401;-81
2022/10/09 04:26:40;;;;;;;25.50;9.87;;;7.30;99.90;;;;;;5020142;28;37147;-80
2022/10/09 04:29:07;;;;;;;21.00;8.33;;;7.40;99.90;;;;;;5023748;28;36392;-82
2022/10/09 04:31:34;;;;;;;20.07;8.10;;;7.50;99.90;;;;;;5032817;28;39015;-82
2022/10/09 04:34:02;;;;;;;17.27;7.80;;;7.50;99.90;;;;;;5011644;28;37684;-83
2022/10/09 04:36:36;;;;;;;21.83;9.47;;;7.50;99.90;;;;;;5024394;28;48027;-82
2022/10/09 04:39:04;;;;;;;14.77;6.53;;;7.50;99.90;;;;;;4995736;28;36947;-81
2022/10/09 04:41:47;;;;;;;17.90;7.40;;;7.50;99.90;;;;;;5017022;28;38357;-81
2022/10/09 04:44:22;;;;;;;25.03;8.37;;;7.60;99.90;;;;;;5027124;28;39669;-82
2022/10/09 04:46:59;;;;;;;26.07;9.60;;;7.60;99.90;;;;;;5018665;28;39174;-80
2022/10/09 04:49:38;;;;;;;19.43;8.47;;;7.60;99.90;;;;;;4987313;28;37698;-82
2022/10/09 04:52:17;;;;;;;16.80;6.67;;;7.60;99.90;;;;;;5011838;28;40134;-82
2022/10/09 04:54:56;;;;;;;18.77;8.07;;;7.60;99.90;;;;;;5008204;28;38946;-82
2022/10/09 04:57:27;;;;;;;20.33;8.80;;;7.60;99.90;;;;;;5007191;28;38242;-81
2022/10/09 05:00:20;;;;;;;20.63;8.77;;;7.70;99.90;;;;;;5014543;28;36566;-81
2022/10/09 05:02:50;;;;;;;16.70;8.57;;;7.70;99.90;;;;;;5013151;28;47931;-81
2022/10/09 05:05:28;;;;;;;20.97;8.27;;;7.70;99.90;;;;;;4997932;28;37951;-82
2022/10/09 05:07:57;;;;;;;15.70;8.37;;;7.80;99.90;;;;;;5038914;28;39479;-81
2022/10/09 05:13:57;;;;;;;15.83;7.23;;;7.80;99.90;;;;;;5034252;28;49868;-82
2022/10/09 05:16:28;;;;;;;15.53;7.53;;;7.80;99.90;;;;;;5016143;28;38784;-81
2022/10/09 05:19:03;;;;;;;29.30;9.67;;;7.90;99.90;;;;;;5030423;28;38789;-81
2022/10/09 05:21:32;;;;;;;31.00;10.83;;;7.90;99.90;;;;;;4995198;28;48437;-82
2022/10/09 05:24:04;;;;;;;24.20;9.63;;;7.90;99.90;;;;;;5029914;28;42341;-82
2022/10/09 05:26:35;;;;;;;23.27;7.70;;;7.80;99.90;;;;;;4979654;28;46625;-82
2022/10/09 05:29:31;;;;;;;27.35;10.55;;;7.70;99.90;;;;;;5000141;28;38425;-82
2022/10/09 05:32:05;;;;;;;19.20;9.63;;;7.70;99.90;;;;;;5013546;28;48915;-82
2022/10/09 05:34:47;;;;;;;27.67;10.07;;;7.80;99.90;;;;;;5019092;28;48428;-82
2022/10/09 05:37:15;;;;;;;18.20;9.18;;;7.70;99.90;;;;;;5026825;28;38130;-82
2022/10/09 05:39:45;;;;;;;35.47;11.97;;;7.70;99.90;;;;;;5017958;28;38188;-82
2022/10/09 05:42:12;;;;;;;20.97;9.70;;;7.70;99.90;;;;;;4996092;28;37702;-82
2022/10/09 05:45:08;;;;;;;18.67;9.47;;;7.70;99.90;;;;;;5021962;28;39601;-82
2022/10/09 05:47:38;;;;;;;17.50;8.50;;;7.60;99.90;;;;;;5265761;23;50319;-83
2022/10/09 05:50:08;;;;;;;17.60;8.70;;;7.60;99.90;;;;;;4974548;28;38284;-83
2022/10/09 05:52:38;;;;;;;18.83;8.40;;;7.50;99.90;;;;;;5001005;28;37775;-83
2022/10/09 05:55:07;;;;;;;21.97;9.93;;;7.60;99.90;;;;;;4973933;28;39628;-83
2022/10/09 05:57:46;;;;;;;16.30;8.30;;;7.50;99.90;;;;;;4978331;28;47483;-83
2022/10/09 06:00:22;;;;;;;27.03;9.67;;;7.50;99.90;;;;;;4971073;28;39914;-83
2022/10/09 06:03:01;;;;;;;16.03;8.40;;;7.50;99.90;;;;;;5005873;28;36763;-83
2022/10/09 07:05:53;;;;;;;28.40;13.15;;;7.90;99.90;;;;;;5445587;23;20038;-82
2022/10/09 07:13:43;;;;;;;29.33;12.93;;;8.00;99.90;;;;;;5646035;23;20022;-81
2022/10/09 07:34:28;;;;;;;37.78;20.88;;;8.50;99.90;;;;;;5222877;23;20049;-85
2022/10/09 07:37:04;;;;;;;32.13;16.87;;;8.60;99.90;;;;;;5029266;28;38496;-84
2022/10/09 07:39:35;;;;;;;33.00;17.87;;;8.60;99.90;;;;;;5025736;28;20031;-83
2022/10/09 07:42:04;;;;;;;42.20;19.60;;;8.70;99.90;;;;;;5022190;28;38964;-84
2022/10/09 07:44:42;;;;;;;24.50;16.10;;;8.70;99.90;;;;;;5011728;28;48581;-84
2022/10/09 07:47:10;;;;;;;24.57;15.03;;;8.80;99.90;;;;;;5023014;28;38886;-84
2022/10/09 07:49:38;;;;;;;33.00;15.97;;;8.90;99.90;;;;;;5030454;28;40712;-83
2022/10/09 07:52:08;;;;;;;34.80;20.80;;;8.90;99.90;;;;;;5047580;28;39002;-83
2022/10/09 07:54:35;;;;;;;26.23;12.77;;;9.00;99.90;;;;;;5033166;28;40954;-82
2022/10/09 07:57:03;;;;;;;31.87;14.90;;;9.10;99.90;;;;;;5026506;28;36146;-83
2022/10/09 07:59:30;;;;;;;32.83;15.53;;;9.10;99.90;;;;;;5030195;28;48598;-82
2022/10/09 08:01:56;;;;;;;28.57;12.73;;;9.20;99.90;;;;;;5053016;28;37250;-83
2022/10/09 08:04:37;;;;;;;32.03;13.87;;;9.30;99.90;;;;;;5037239;28;37981;-82
2022/10/09 08:07:03;;;;;;;34.83;15.37;;;9.40;99.90;;;;;;5033720;28;37165;-82
2022/10/09 08:09:30;;;;;;;24.23;14.07;;;9.50;99.90;;;;;;5038881;28;37667;-82
2022/10/09 08:11:57;;;;;;;41.90;21.07;;;9.60;99.90;;;;;;5050000;28;40099;-83
2022/10/09 08:14:28;;;;;;;25.13;14.07;;;9.70;99.90;;;;;;5054033;28;39563;-82
2022/10/09 08:16:58;;;;;;;32.93;16.43;;;9.70;99.90;;;;;;5034125;28;38682;-83
2022/10/09 08:19:26;;;;;;;27.63;12.80;;;9.70;99.90;;;;;;5027650;28;37898;-83
2022/10/09 08:21:53;;;;;;;20.47;12.63;;;9.80;99.90;;;;;;5025579;28;38149;-83
2022/10/09 08:24:20;;;;;;;28.73;14.68;;;9.90;99.90;;;;;;5044508;28;38658;-82
2022/10/09 08:26:50;;;;;;;35.42;15.52;;;10.00;99.90;;;;;;5033020;28;37629;-83
2022/10/09 08:29:20;;;;;;;28.37;12.37;;;10.10;99.90;;;;;;5016749;28;38352;-84
2022/10/09 08:31:49;;;;;;;25.27;11.57;;;10.20;99.90;;;;;;5036271;28;37680;-83
2022/10/09 08:34:17;;;;;;;24.77;13.13;;;10.30;99.90;;;;;;5008970;28;38600;-83
2022/10/09 08:36:48;;;;;;;20.87;12.40;;;10.40;99.90;;;;;;5029080;28;36728;-82
2022/10/09 08:39:16;;;;;;;199.60;21.42;;;10.50;99.90;;;;;;5026281;28;38522;-83
2022/10/09 08:41:56;;;;;;;23.35;13.68;;;10.60;99.90;;;;;;5055525;28;38678;-82
2022/10/09 08:44:36;;;;;;;30.52;11.32;;;10.80;99.90;;;;;;5037465;28;38873;-83
2022/10/09 08:47:40;;;;;;;21.60;9.98;;;10.90;99.90;;;;;;5019984;28;37354;-84
2022/10/09 08:50:29;;;;;;;21.75;9.55;;;11.00;99.90;;;;;;5001163;28;47871;-83
2022/10/09 08:53:12;;;;;;;19.50;9.23;;;11.20;99.90;;;;;;5033143;28;37753;-83
2022/10/09 08:55:59;;;;;;;21.40;9.27;;;11.20;99.90;;;;;;5027328;28;47663;-81
2022/10/09 08:58:33;;;;;;;15.15;8.65;;;11.30;99.90;;;;;;5009656;28;35927;-81
2022/10/09 09:01:28;;;;;;;16.67;8.30;;;11.40;99.90;;;;;;5012311;28;37702;-80
2022/10/09 09:04:11;;;;;;;16.33;7.68;;;11.60;99.90;;;;;;5003244;28;47110;-81
2022/10/09 09:06:50;;;;;;;;;;;11.70;99.90;;;;;;5011317;28;47087;-85
2022/10/09 09:09:48;;;;;;;20.00;7.90;;;11.80;99.90;;;;;;5034206;28;37444;-84
2022/10/09 09:12:18;;;;;;;16.50;7.85;;;11.80;99.90;;;;;;5014572;28;38233;-78
2022/10/09 09:15:24;;;;;;;20.13;7.78;;;11.80;99.90;;;;;;5015503;28;40015;-79
2022/10/09 09:18:01;;;;;;;16.95;6.20;;;11.90;99.90;;;;;;5025375;28;47394;-79
2022/10/09 09:20:43;;;;;;;13.75;5.78;;;12.00;99.90;;;;;;5032983;28;37257;-81
2022/10/09 09:23:14;;;;;;;18.52;5.80;;;12.00;99.90;;;;;;5032272;28;37525;-79
2022/10/09 09:25:41;;;;;;;13.35;5.70;;;12.10;99.90;;;;;;5027864;28;38651;-78
2022/10/09 09:28:18;;;;;;;11.85;5.68;;;12.20;99.90;;;;;;5026930;28;37698;-79
2022/10/09 09:31:11;;;;;;;13.55;5.57;;;12.20;99.90;;;;;;5004038;28;40882;-79
2022/10/09 09:33:49;;;;;;;16.50;6.30;;;12.30;99.90;;;;;;4983465;28;48177;-79
2022/10/09 09:36:26;;;;;;;15.93;5.95;;;12.50;99.90;;;;;;5006668;28;36937;-81
2022/10/09 09:38:53;;;;;;;18.55;5.90;;;12.60;99.90;;;;;;5025798;28;36805;-79
2022/10/09 09:41:19;;;;;;;15.38;6.18;;;12.70;99.90;;;;;;5020285;28;36429;-79
2022/10/09 09:44:06;;;;;;;10.57;4.70;;;13.00;99.90;;;;;;5036041;28;40361;-80
2022/10/09 09:46:33;;;;;;;15.80;4.95;;;13.30;99.90;;;;;;4993292;28;47319;-78
2022/10/09 09:49:17;;;;;;;11.32;3.70;;;13.50;99.90;;;;;;5041650;28;39428;-77
2022/10/09 09:51:59;;;;;;;15.25;3.63;;;13.80;99.90;;;;;;5017843;28;49894;-79
2022/10/09 09:54:28;;;;;;;15.75;3.78;;;14.10;99.90;;;;;;5063635;23;42319;-79
2022/10/09 09:56:57;;;;;;;11.55;3.60;;;14.30;99.90;;;;;;5014467;28;40356;-78
2022/10/09 09:59:46;;;;;;;11.63;3.05;;;14.40;99.90;;;;;;5008913;28;39551;-80
2022/10/09 10:02:23;;;;;;;8.57;3.00;;;14.60;99.90;;;;;;5014756;28;35957;-79
2022/10/09 10:05:05;;;;;;;11.55;2.53;;;14.50;99.90;;;;;;5014269;28;38940;-79
2022/10/09 10:07:38;;;;;;;7.63;3.27;;;14.50;99.90;;;;;;5009877;28;48538;-78
2022/10/09 10:10:19;;;;;;;6.50;2.90;;;14.50;99.90;;;;;;5268851;23;37837;-78
2022/10/09 10:12:52;;;;;;;10.85;3.10;;;14.60;99.90;;;;;;5031613;28;47449;-78
2022/10/09 10:18:52;;;;;;;9.50;3.45;;;14.80;99.90;;;;;;5016214;28;50726;-80
2022/10/09 10:21:23;;;;;;;8.88;2.80;;;15.00;99.90;;;;;;5003107;28;38278;-79
2022/10/09 10:23:58;;;;;;;8.52;3.17;;;15.20;99.90;;;;;;4986289;28;36604;-78
2022/10/09 10:26:28;;;;;;;12.10;3.35;;;15.30;99.90;;;;;;5001017;28;38982;-79
2022/10/09 10:29:15;;;;;;;8.02;3.22;;;15.30;99.90;;;;;;4980566;28;36763;-81
2022/10/09 10:32:19;;;;;;;7.82;2.95;;;15.30;99.90;;;;;;4980209;28;47135;-79
2022/10/09 10:35:05;;;;;;;9.90;3.25;;;15.50;99.90;;;;;;4995957;28;48583;-81
2022/10/09 10:38:00;;;;;;;9.57;3.40;;;15.60;99.90;;;;;;4982433;28;46958;-82
2022/10/09 10:40:45;;;;;;;8.02;3.47;;;15.60;99.90;;;;;;4982271;28;37333;-81
2022/10/09 10:43:29;;;;;;;5.55;3.17;;;15.60;99.90;;;;;;4999762;28;39456;-84
2022/10/09 10:46:17;;;;;;;6.72;2.95;;;15.70;99.90;;;;;;4997408;28;38193;-84
2022/10/09 10:48:46;;;;;;;11.63;3.33;;;16.00;99.90;;;;;;4996679;28;49159;-83
2022/10/09 10:51:29;;;;;;;8.30;3.03;;;16.10;99.90;;;;;;4971576;28;37378;-82
2022/10/09 10:54:33;;;;;;;8.65;2.95;;;16.20;99.90;;;;;;4975100;28;36939;-82
2022/10/09 10:57:32;;;;;;;10.00;2.95;;;16.20;99.90;;;;;;4997376;28;48662;-82
2022/10/09 11:00:04;;;;;;;5.65;2.65;;;16.30;99.90;;;;;;4902209;28;47170;-85
2022/10/09 11:02:33;;;;;;;;;;;16.40;99.90;;;;;;4976866;28;38610;-85
2022/10/09 11:05:27;;;;;;;9.95;2.42;;;16.40;99.90;;;;;;4973294;28;37920;-84
2022/10/09 11:08:10;;;;;;;7.07;2.67;;;16.50;99.90;;;;;;4997844;28;48309;-81
2022/10/09 11:10:59;;;;;;;7.57;2.50;;;16.50;99.90;;;;;;4999302;28;48113;-84
2022/10/09 11:13:41;;;;;;;9.80;2.60;;;16.50;99.90;;;;;;4980084;28;40555;-84
2022/10/09 11:16:33;;;;;;;6.80;2.53;;;16.60;99.90;;;;;;4980453;28;39309;-84
2022/10/09 11:19:27;;;;;;;9.40;2.60;;;16.60;99.90;;;;;;5000346;28;37149;-82
2022/10/09 11:22:11;;;;;;;7.75;2.60;;;16.60;99.90;;;;;;4983764;28;47229;-83
2022/10/09 11:24:49;;;;;;;4.88;2.03;;;16.80;99.90;;;;;;4978305;28;47253;-82
2022/10/09 11:27:22;;;;;;;8.45;2.78;;;16.90;99.90;;;;;;4998011;28;38080;-83
2022/10/09 11:29:57;;;;;;;;;;;17.00;99.90;;;;;;4981685;28;38720;-83
2022/10/09 11:32:37;;;;;;;8.63;2.50;;;17.10;99.90;;;;;;4981807;28;39817;-84
2022/10/09 11:35:06;;;;;;;4.82;2.30;;;17.20;99.90;;;;;;5000321;28;38112;-85
2022/10/09 11:37:37;;;;;;;7.18;2.33;;;17.20;99.90;;;;;;4995774;28;48259;-85
2022/10/09 11:40:17;;;;;;;7.50;2.63;;;17.20;99.90;;;;;;4978193;28;35965;-85
2022/10/09 11:42:54;;;;;;;5.15;2.83;;;17.30;99.90;;;;;;4992313;28;48783;-84
2022/10/09 11:45:20;;;;;;;12.82;3.35;;;17.40;99.90;;;;;;4972697;28;39031;-82
2022/10/09 11:48:03;;;;;;;6.97;2.22;;;17.40;99.90;;;;;;5000011;28;37766;-81
2022/10/09 11:50:40;;;;;;;5.25;2.63;;;17.40;99.90;;;;;;4973674;28;46750;-82
2022/10/09 11:53:13;;;;;;;6.90;2.25;;;17.50;99.90;;;;;;4998530;28;38470;-82
2022/10/09 11:55:40;;;;;;;9.35;3.38;;;17.50;99.90;;;;;;4996243;28;38283;-83
2022/10/09 11:58:26;;;;;;;5.32;2.15;;;17.50;99.90;;;;;;4978140;28;39792;-83
2022/10/09 12:00:54;;;;;;;6.35;1.88;;;17.50;99.90;;;;;;4981201;28;38023;-83
2022/10/09 12:03:34;;;;;;;6.43;1.80;;;17.50;99.90;;;;;;4977229;28;38221;-83
2022/10/09 12:06:15;;;;;;;5.32;1.92;;;17.50;99.90;;;;;;4997521;28;37827;-83
2022/10/09 12:08:55;;;;;;;7.50;1.92;;;17.50;99.90;;;;;;4979717;28;47055;-87
2022/10/09 12:11:23;;;;;;;5.53;2.05;;;17.50;99.90;;;;;;4961035;28;37720;-85
2022/10/09 12:13:57;;;;;;;4.78;1.52;;;17.60;99.90;;;;;;4977367;28;39444;-81
2022/10/09 12:16:34;;;;;;;5.20;1.50;;;17.60;99.90;;;;;;4976182;28;39076;-82
2022/10/09 12:19:10;;;;;;;5.20;1.60;;;17.50;99.90;;;;;;4976568;28;38697;-84
2022/10/09 12:21:45;;;;;;;4.60;1.42;;;17.60;99.90;;;;;;4966012;28;46963;-82
2022/10/09 12:24:17;;;;;;;5.25;1.58;;;17.60;99.90;;;;;;4960332;28;39347;-85
2022/10/09 12:26:44;;;;;;;5.75;1.67;;;17.70;99.90;;;;;;4961392;28;39050;-85
2022/10/09 12:29:39;;;;;;;4.82;1.48;;;17.80;99.90;;;;;;4982410;28;37794;-86
2022/10/09 12:32:14;;;;;;;5.00;1.00;;;17.70;99.90;;;;;;4972908;28;36977;-86
2022/10/09 12:34:48;;;;;;;5.47;1.58;;;17.70;99.90;;;;;;4978341;28;39571;-84
2022/10/09 12:37:18;;;;;;;5.90;1.63;;;17.80;99.90;;;;;;4974073;28;39076;-83
2022/10/09 12:39:46;;;;;;;4.85;1.38;;;17.90;99.90;;;;;;4979205;28;37911;-83
2022/10/09 12:42:17;;;;;;;5.07;1.55;;;17.80;99.90;;;;;;4960466;28;37277;-81
2022/10/09 12:44:44;;;;;;;5.03;1.20;;;17.80;99.90;;;;;;4963888;28;38476;-84
2022/10/09 12:47:19;;;;;;;6.30;1.38;;;17.90;99.90;;;;;;4961632;28;38572;-82
2022/10/09 12:50:01;;;;;;;4.53;1.42;;;17.90;99.90;;;;;;4985642;28;38926;-83
2022/10/09 12:52:27;;;;;;;6.75;1.60;;;18.00;99.90;;;;;;4959078;28;38025;-82
2022/10/09 12:54:54;;;;;;;9.38;1.67;;;18.10;99.90;;;;;;4966317;28;39099;-81
2022/10/09 12:57:20;;;;;;;8.57;1.70;;;18.10;99.90;;;;;;4980086;28;39904;-82
2022/10/09 12:59:47;;;;;;;4.20;1.50;;;18.10;99.90;;;;;;4966982;28;38554;-83
2022/10/09 13:02:19;;;;;;;6.82;1.42;;;18.20;99.90;;;;;;4984958;28;37303;-83
2022/10/09 13:04:57;;;;;;;3.60;1.27;;;18.20;99.90;;;;;;4965329;28;40368;-82
2022/10/09 13:07:26;;;;;;;5.15;1.80;;;18.30;99.90;;;;;;4961629;28;40935;-83
2022/10/09 13:10:06;;;;;;;6.40;1.67;;;18.40;99.90;;;;;;4988723;28;38592;-85
2022/10/09 13:12:33;;;;;;;3.35;1.48;;;18.40;99.90;;;;;;4977133;28;48346;-82
2022/10/09 13:15:05;;;;;;;3.03;1.35;;;18.30;99.90;;;;;;4981207;28;39709;-81
2022/10/09 13:17:36;;;;;;;;;;;18.30;99.90;;;;;;4986024;28;47463;-85
2022/10/09 13:20:11;;;;;;;5.78;1.70;;;18.30;99.90;;;;;;4981417;28;38869;-84
2022/10/09 13:22:38;;;;;;;6.38;1.73;;;18.20;99.90;;;;;;4979340;28;47288;-85
2022/10/09 13:25:05;;;;;;;5.13;1.10;;;18.10;99.90;;;;;;5002703;28;38991;-81
2022/10/09 13:27:36;;;;;;;9.57;1.90;;;18.10;99.90;;;;;;4996835;28;38683;-83
2022/10/09 13:30:04;;;;;;;5.78;1.80;;;18.20;99.90;;;;;;4985641;28;36957;-82
2022/10/09 13:32:31;;;;;;;6.65;1.85;;;18.20;99.90;;;;;;5005436;28;47592;-83
2022/10/09 13:34:57;;;;;;;3.22;1.60;;;18.10;99.90;;;;;;5004094;28;39526;-83
2022/10/09 13:37:25;;;;;;;5.20;1.58;;;18.10;99.90;;;;;;5005767;28;38925;-83
2022/10/09 13:39:52;;;;;;;5.35;1.42;;;18.00;99.90;;;;;;5003599;28;39133;-83
2022/10/09 13:42:20;;;;;;;5.20;1.40;;;18.10;99.90;;;;;;4989279;28;37156;-83
2022/10/09 13:44:46;;;;;;;7.57;1.65;;;18.00;99.90;;;;;;4986972;28;38900;-84
2022/10/09 13:47:12;;;;;;;5.50;1.90;;;18.00;99.90;;;;;;5001165;28;39561;-84
2022/10/09 13:49:38;;;;;;;6.03;1.52;;;18.00;99.90;;;;;;5008432;28;38827;-84
2022/10/09 13:52:04;;;;;;;5.80;1.60;;;18.00;99.90;;;;;;5003379;28;37720;-84
2022/10/09 13:54:30;;;;;;;6.38;1.88;;;18.00;99.90;;;;;;4995792;28;38878;-83
2022/10/09 13:56:57;;;;;;;5.53;1.88;;;18.00;99.90;;;;;;4997493;28;37118;-84
2022/10/09 13:59:23;;;;;;;6.68;1.92;;;18.00;99.90;;;;;;4980868;28;39012;-82
2022/10/09 14:01:50;;;;;;;7.43;1.90;;;17.90;99.90;;;;;;4975530;28;37366;-86
2022/10/09 14:04:16;;;;;;;9.70;2.20;;;17.90;99.90;;;;;;4979319;28;38478;-82
2022/10/09 14:06:43;;;;;;;7.47;1.77;;;17.90;99.90;;;;;;5003384;28;38340;-86
2022/10/09 14:09:09;;;;;;;7.10;1.73;;;17.90;99.90;;;;;;4980441;28;38012;-82
2022/10/09 14:11:35;;;;;;;3.78;1.60;;;17.90;99.90;;;;;;4980357;28;37258;-86
2022/10/09 14:14:02;;;;;;;6.65;1.83;;;17.90;99.90;;;;;;4985074;28;40649;-82
2022/10/09 14:16:28;;;;;;;8.00;1.90;;;18.00;99.90;;;;;;4982985;28;46548;-84
2022/10/09 14:18:56;;;;;;;8.00;2.35;;;18.00;99.90;;;;;;4981396;28;38643;-83
2022/10/09 14:21:22;;;;;;;7.05;2.13;;;18.00;99.90;;;;;;4983527;28;38232;-85
2022/10/09 14:23:52;;;;;;;8.52;1.85;;;17.90;99.90;;;;;;5004665;28;37701;-86
2022/10/09 14:26:18;;;;;;;4.18;1.90;;;17.90;99.90;;;;;;5001206;28;39424;-83
2022/10/09 14:28:45;;;;;;;4.25;2.00;;;17.90;99.90;;;;;;4976677;28;38151;-82
2022/10/09 14:31:12;;;;;;;4.70;2.30;;;18.00;99.90;;;;;;5000155;28;37502;-84
2022/10/09 14:33:38;;;;;;;5.68;2.42;;;18.00;99.90;;;;;;4983450;28;39633;-84
2022/10/09 14:36:11;;;;;;;7.15;2.22;;;17.90;99.90;;;;;;5002125;28;38301;-83
2022/10/09 14:38:38;;;;;;;4.28;2.00;;;17.90;99.90;;;;;;4976044;28;39254;-84
2022/10/09 14:41:05;;;;;;;4.85;2.13;;;17.90;99.90;;;;;;4979132;28;37998;-87
2022/10/09 14:43:31;;;;;;;4.95;2.20;;;17.80;99.90;;;;;;4975612;28;40518;-83
2022/10/09 14:46:15;;;;;;;5.35;2.08;;;17.80;99.90;;;;;;4978031;28;38601;-80
2022/10/09 14:48:43;;;;;;;6.38;2.38;;;17.90;99.90;;;;;;4985301;28;47140;-84
2022/10/09 14:51:12;;;;;;;6.28;2.15;;;17.90;99.90;;;;;;4980857;28;38063;-88
2022/10/09 14:53:38;;;;;;;4.80;2.03;;;18.00;99.90;;;;;;4998904;28;38696;-84
2022/10/09 14:56:08;;;;;;;3.78;1.50;;;17.90;99.90;;;;;;4985136;28;38786;-83
2022/10/09 14:58:35;;;;;;;4.78;1.80;;;17.90;99.90;;;;;;4984528;28;38602;-84
2022/10/09 15:01:02;;;;;;;5.13;1.80;;;17.90;99.90;;;;;;4996786;28;38466;-83